createdAt,value
2022-10-11T00:01:52.827Z,16.21
2022-10-11T00:06:55.721Z,16.19
2022-10-11T00:11:58.607Z,16.16
2022-10-11T00:17:02.722Z,16.16
2022-10-11T00:22:05.540Z,16.10
2022-10-11T00:27:08.407Z,16.11
2022-10-11T00:32:12.737Z,16.06
2022-10-11T00:37:15.442Z,16.07
2022-10-11T00:42:18.601Z,16.02
2022-10-11T00:47:24.475Z,16.02
2022-10-11T00:52:31.669Z,15.99
2022-10-11T00:57:36.495Z,16.00
2022-10-11T01:02:41.305Z,15.95
2022-10-11T01:07:44.408Z,15.95
2022-10-11T01:12:52.339Z,15.88
2022-10-11T01:18:00.890Z,15.89
2022-10-11T01:23:45.043Z,15.86
2022-10-11T01:28:51.840Z,15.83
2022-10-11T01:33:57.871Z,15.82
2022-10-11T01:39:04.862Z,15.81
2022-10-11T01:44:08.989Z,15.80
2022-10-11T01:49:13.256Z,15.74
2022-10-11T01:54:44.052Z,15.73
2022-10-11T01:59:59.559Z,15.71
2022-10-11T02:05:09.872Z,15.68
2022-10-11T02:10:16.026Z,15.66
2022-10-11T02:15:20.363Z,15.63
2022-10-11T02:20:26.482Z,15.64
2022-10-11T02:25:32.100Z,15.61
2022-10-11T02:30:35.622Z,15.59
2022-10-11T02:35:43.083Z,15.58
2022-10-11T02:40:48.438Z,15.54
2022-10-11T02:45:53.776Z,15.49
2022-10-11T02:50:58.575Z,15.48
2022-10-11T02:56:01.474Z,15.48
2022-10-11T03:01:04.690Z,15.46
2022-10-11T03:06:09.340Z,15.47
2022-10-11T03:11:13.298Z,15.46
2022-10-11T03:16:16.076Z,15.46
2022-10-11T03:21:20.191Z,15.40
2022-10-11T03:26:22.943Z,15.41
2022-10-11T03:31:25.730Z,15.36
2022-10-11T03:36:29.871Z,15.35
2022-10-11T03:41:32.725Z,15.32
2022-10-11T03:46:35.421Z,15.29
2022-10-11T03:51:39.582Z,15.28
2022-10-11T03:56:42.264Z,15.26
2022-10-11T04:01:45.114Z,15.21
2022-10-11T04:06:49.313Z,15.21
2022-10-11T04:11:51.960Z,15.15
2022-10-11T04:16:57.371Z,15.13
2022-10-11T04:22:04.392Z,15.12
2022-10-11T04:27:07.268Z,15.08
2022-10-11T04:32:09.953Z,15.04
2022-10-11T04:37:14.046Z,15.05
2022-10-11T04:42:17.319Z,15.03
2022-10-11T04:47:19.983Z,14.98
2022-10-11T04:52:25.930Z,14.96
2022-10-11T04:57:28.800Z,14.95
2022-10-11T05:02:31.670Z,14.95
2022-10-11T05:07:35.909Z,14.92
2022-10-11T05:12:38.794Z,14.88
2022-10-11T05:17:41.515Z,14.87
2022-10-11T05:22:45.635Z,14.83
2022-10-11T05:27:48.683Z,14.80
2022-10-11T05:32:51.363Z,14.80
2022-10-11T05:37:55.545Z,14.78
2022-10-11T05:42:58.312Z,14.75
2022-10-11T05:48:00.961Z,14.76
2022-10-11T05:53:05.445Z,14.73
2022-10-11T05:58:09.012Z,14.73
2022-10-11T06:03:13.210Z,14.73
2022-10-11T06:08:17.379Z,14.73
2022-10-11T06:13:20.091Z,14.77
2022-10-11T06:18:22.775Z,14.76
2022-10-11T06:23:26.929Z,14.77
2022-10-11T06:28:30.479Z,14.80
2022-10-11T06:33:33.441Z,14.80
2022-10-11T06:38:42.289Z,14.83
2022-10-11T06:43:49.410Z,14.84
2022-10-11T06:48:52.399Z,14.85
2022-10-11T06:53:59.815Z,14.97
2022-10-11T06:59:03.510Z,15.64
2022-10-11T07:04:06.302Z,15.86
2022-10-11T07:09:10.821Z,15.89
2022-10-11T07:14:13.613Z,15.94
2022-10-11T07:19:16.284Z,16.11
2022-10-11T07:24:20.343Z,16.49
2022-10-11T07:29:23.122Z,16.91
2022-10-11T07:34:25.810Z,17.09
2022-10-11T07:39:30.954Z,17.15
2022-10-11T07:44:34.217Z,17.18
2022-10-11T07:49:36.954Z,17.25
2022-10-11T07:54:41.113Z,17.26
2022-10-11T07:59:49.313Z,17.28
2022-10-11T08:04:52.790Z,17.31
2022-10-11T08:09:57.174Z,17.26
2022-10-11T08:14:59.929Z,17.27
2022-10-11T08:20:02.628Z,17.37
2022-10-11T08:25:07.615Z,17.33
2022-10-11T08:30:11.907Z,17.33
2022-10-11T08:35:14.689Z,17.37
2022-10-11T08:40:20.930Z,17.39
2022-10-11T08:45:30.550Z,17.40
2022-10-11T08:50:33.292Z,17.41
2022-10-11T08:55:43.926Z,17.40
2022-10-11T09:00:47.476Z,17.41
2022-10-11T09:06:03.687Z,17.42
2022-10-11T09:11:12.286Z,17.43
2022-10-11T09:16:23.927Z,17.39
2022-10-11T09:21:33.453Z,17.36
2022-10-11T09:26:42.832Z,17.35
2022-10-11T09:31:48.577Z,17.35
2022-10-11T09:36:55.984Z,17.35
2022-10-11T09:42:02.583Z,17.37
2022-10-11T09:47:06.222Z,17.37
2022-10-11T09:52:15.901Z,17.40
2022-10-11T09:57:23.196Z,17.37
2022-10-11T10:02:26.139Z,17.41
2022-10-11T10:07:29.942Z,17.38
2022-10-11T10:12:34.129Z,17.43
2022-10-11T10:17:37.309Z,17.44
2022-10-11T10:22:40.598Z,17.43
2022-10-11T10:27:58.289Z,17.43
2022-10-11T10:33:03.295Z,17.44
2022-10-11T10:38:13.998Z,17.45
2022-10-11T10:43:19.947Z,17.44
2022-10-11T10:48:27.158Z,17.44
2022-10-11T10:53:34.140Z,17.44
2022-10-11T10:58:46.836Z,17.43
2022-10-11T11:03:56.303Z,17.44
2022-10-11T11:09:07.203Z,17.46
2022-10-11T11:14:19.786Z,17.43
2022-10-11T11:19:31.302Z,17.41
2022-10-11T11:24:41.111Z,17.38
2022-10-11T11:29:55.238Z,17.38
2022-10-11T11:35:01.761Z,17.41
2022-10-11T11:40:07.697Z,17.40
2022-10-11T11:45:18.884Z,17.40
2022-10-11T11:50:23.795Z,17.38
2022-10-11T11:55:32.365Z,17.35
2022-10-11T12:00:52.636Z,17.39
2022-10-11T12:06:20.875Z,17.40
2022-10-11T12:11:29.497Z,17.41
2022-10-11T12:17:17.151Z,17.40
2022-10-11T12:22:38.479Z,17.41
2022-10-11T12:27:43.870Z,17.39
2022-10-11T12:32:54.412Z,17.42
2022-10-11T12:38:07.136Z,17.41
2022-10-11T12:43:12.808Z,17.41
2022-10-11T12:48:22.891Z,17.41
2022-10-11T12:53:39.243Z,17.42
2022-10-11T12:58:42.297Z,17.43
2022-10-11T13:03:50.813Z,17.59
2022-10-11T13:08:56.571Z,17.71
2022-10-11T13:14:01.093Z,17.72
2022-10-11T13:19:06.806Z,17.73
2022-10-11T13:24:13.163Z,17.83
2022-10-11T13:29:17.522Z,17.79
2022-10-11T13:34:23.580Z,17.70
2022-10-11T13:39:31.225Z,17.65
2022-10-11T13:44:35.367Z,17.67
2022-10-11T13:49:40.157Z,17.66
2022-10-11T13:54:55.446Z,17.67
2022-10-11T13:59:58.244Z,17.70
2022-10-11T14:05:02.861Z,17.77
2022-10-11T14:10:06.917Z,17.75
2022-10-11T14:15:25.271Z,17.75
2022-10-11T14:20:38.713Z,17.76
2022-10-11T14:25:41.574Z,17.75
2022-10-11T14:30:44.392Z,17.71
2022-10-11T14:35:48.573Z,17.65
2022-10-11T14:40:51.387Z,17.61
2022-10-11T14:45:54.620Z,17.61
2022-10-11T14:51:00.467Z,17.57
2022-10-11T14:56:03.619Z,17.53
2022-10-11T15:01:06.821Z,17.50
2022-10-11T15:06:16.568Z,17.43
2022-10-11T15:11:20.739Z,17.43
2022-10-11T15:16:23.710Z,17.39
2022-10-11T15:21:29.579Z,17.37
2022-10-11T15:26:33.877Z,17.33
2022-10-11T15:31:36.795Z,17.32
2022-10-11T15:36:40.840Z,17.30
2022-10-11T15:41:43.571Z,17.26
2022-10-11T15:46:46.347Z,17.25
2022-10-11T15:51:50.424Z,17.16
2022-10-11T15:56:53.116Z,17.19
2022-10-11T16:01:55.874Z,17.14
2022-10-11T16:06:59.946Z,17.16
2022-10-11T16:12:02.656Z,17.13
2022-10-11T16:17:05.712Z,17.10
2022-10-11T16:22:09.830Z,17.08
2022-10-11T16:27:17.868Z,17.03
2022-10-11T16:32:22.109Z,16.99
2022-10-11T16:37:26.269Z,16.96
2022-10-11T16:42:29.025Z,16.91
2022-10-11T16:47:31.982Z,16.86
2022-10-11T16:52:36.091Z,16.86
2022-10-11T16:57:38.816Z,16.88
2022-10-11T17:02:41.536Z,16.95
2022-10-11T17:07:45.615Z,16.99
2022-10-11T17:12:50.264Z,16.94
2022-10-11T17:17:56.308Z,16.90
2022-10-11T17:23:01.024Z,16.90
2022-10-11T17:28:05.496Z,16.86
2022-10-11T17:33:28.125Z,16.84
2022-10-11T17:38:32.255Z,16.83
2022-10-11T17:43:35.491Z,16.81
2022-10-11T17:48:39.348Z,16.75
2022-10-11T17:53:44.056Z,16.77
2022-10-11T17:58:47.201Z,16.76
2022-10-11T18:03:52.919Z,16.72
2022-10-11T18:08:57.832Z,16.71
2022-10-11T18:14:00.627Z,16.67
2022-10-11T18:19:04.216Z,16.66
2022-10-11T18:24:11.671Z,16.64
2022-10-11T18:29:14.465Z,16.62
2022-10-11T18:34:17.272Z,16.61
2022-10-11T18:39:44.177Z,16.58
2022-10-11T18:44:47.011Z,16.55
2022-10-11T18:49:49.714Z,16.54
2022-10-11T18:54:53.815Z,16.51
2022-10-11T18:59:56.550Z,16.48
2022-10-11T19:04:59.341Z,16.45
2022-10-11T19:10:04.313Z,16.43
2022-10-11T19:15:07.642Z,16.40
2022-10-11T19:20:12.442Z,16.38
2022-10-11T19:25:17.172Z,16.34
2022-10-11T19:30:19.967Z,16.33
2022-10-11T19:35:22.633Z,16.31
2022-10-11T19:40:29.151Z,16.30
2022-10-11T19:45:36.155Z,16.29
2022-10-11T19:50:39.310Z,16.24
2022-10-11T19:55:46.438Z,16.25
2022-10-11T20:00:49.433Z,16.22
2022-10-11T20:05:52.157Z,16.22
2022-10-11T20:10:56.446Z,16.17
2022-10-11T20:16:00.094Z,16.17
2022-10-11T20:21:06.093Z,16.15
2022-10-11T20:26:12.714Z,16.08
2022-10-11T20:31:17.458Z,16.08
2022-10-11T20:36:21.411Z,16.07
2022-10-11T20:41:27.688Z,16.04
2022-10-11T20:46:32.317Z,15.99
2022-10-11T20:51:36.050Z,15.96
2022-10-11T20:56:40.515Z,15.94
2022-10-11T21:01:43.303Z,15.90
2022-10-11T21:06:46.278Z,15.84
2022-10-11T21:11:50.355Z,15.83
2022-10-11T21:16:53.044Z,15.81
2022-10-11T21:21:55.742Z,15.80
2022-10-11T21:27:00.834Z,15.77
2022-10-11T21:32:03.799Z,15.74
2022-10-11T21:37:06.473Z,15.72
2022-10-11T21:42:10.529Z,15.69
2022-10-11T21:47:13.198Z,15.67
2022-10-11T21:52:16.066Z,15.63
2022-10-11T21:57:20.078Z,15.63
2022-10-11T22:02:22.768Z,15.58
2022-10-11T22:07:25.538Z,15.58
2022-10-11T22:12:29.562Z,15.54
2022-10-11T22:17:32.212Z,15.53
2022-10-11T22:22:35.233Z,15.51
2022-10-11T22:27:39.469Z,15.49
2022-10-11T22:32:42.164Z,15.46
2022-10-11T22:37:44.991Z,15.43
2022-10-11T22:42:49.323Z,15.43
2022-10-11T22:47:52.282Z,15.41
2022-10-11T22:52:54.947Z,15.43
2022-10-11T22:57:59.022Z,15.42
2022-10-11T23:03:01.807Z,15.42
2022-10-11T23:08:04.610Z,15.37
2022-10-11T23:13:08.722Z,15.38
2022-10-11T23:18:11.410Z,15.36
2022-10-11T23:23:14.056Z,15.35
2022-10-11T23:28:18.103Z,15.32
2022-10-11T23:33:20.846Z,15.33
2022-10-11T23:38:23.594Z,15.31
2022-10-11T23:43:27.606Z,15.30
2022-10-11T23:48:30.303Z,15.29
2022-10-11T23:53:33.222Z,15.27
2022-10-11T23:58:37.474Z,15.26
